Time;durP1;ratioP1;P1;durP2;ratioP2;P2;SDS_P1;SDS_P2;PMS_P1;PMS_P2;Temp;Humidity;BMP_temperature;BMP_pressure;BME280_temperature;BME280_humidity;BME280_pressure;Samples;Min_cycle;Max_cycle;Signal;HPM_P1;HPM_P2
2022/11/08 00:02:40;;;;;;;2.27;1.90;;;6.80;99.90;;;;;;5039622;28;20245;-50
2022/11/08 00:16:05;;;;;;;2.57;2.40;;;6.90;99.90;;;;;;5049667;28;20257;-49
2022/11/08 00:18:33;;;;;;;2.57;1.93;;;7.00;99.90;;;;;;5049601;28;20693;-49
2022/11/08 00:21:02;;;;;;;1.60;1.47;;;7.00;99.90;;;;;;5046893;28;20208;-50
2022/11/08 00:23:29;;;;;;;2.53;1.67;;;7.00;99.90;;;;;;5049439;28;20309;-50
2022/11/08 00:25:56;;;;;;;2.47;2.17;;;6.90;99.90;;;;;;5040317;28;21482;-49
2022/11/08 00:28:23;;;;;;;1.70;1.60;;;6.90;99.90;;;;;;5042063;28;20218;-49
2022/11/08 00:30:50;;;;;;;1.63;1.53;;;7.00;99.90;;;;;;5049027;28;20198;-50
2022/11/08 00:33:17;;;;;;;2.57;1.40;;;7.00;99.90;;;;;;5039895;28;20215;-50
2022/11/08 00:35:45;;;;;;;3.00;1.70;;;7.00;99.90;;;;;;5054487;28;20203;-49
2022/11/08 00:38:12;;;;;;;1.90;1.67;;;7.10;99.90;;;;;;5054344;28;20282;-50
2022/11/08 00:40:39;;;;;;;6.07;1.40;;;7.00;99.90;;;;;;5052089;28;20207;-49
2022/11/08 00:43:06;;;;;;;2.03;1.83;;;7.00;99.90;;;;;;5047069;28;20251;-49
2022/11/08 00:45:33;;;;;;;1.80;1.70;;;7.00;99.90;;;;;;5042129;28;20203;-50
2022/11/08 00:48:00;;;;;;;1.60;1.50;;;6.90;99.90;;;;;;5042548;28;20196;-50
2022/11/08 00:50:27;;;;;;;2.80;1.40;;;6.90;99.90;;;;;;5034321;28;20209;-49
2022/11/08 00:52:55;;;;;;;3.63;1.20;;;6.90;99.90;;;;;;5042933;28;20268;-49
2022/11/08 00:55:22;;;;;;;1.83;1.63;;;6.80;99.90;;;;;;5035881;28;20732;-50
2022/11/08 00:57:49;;;;;;;1.87;1.73;;;6.70;99.90;;;;;;5052454;28;20296;-51
2022/11/08 01:00:17;;;;;;;2.10;2.00;;;6.70;99.90;;;;;;5054164;28;20261;-50
2022/11/08 01:02:44;;;;;;;2.03;1.60;;;6.60;99.90;;;;;;5053843;28;20235;-49
2022/11/08 01:05:11;;;;;;;1.60;1.50;;;6.60;99.90;;;;;;5053582;28;20203;-50
2022/11/08 01:07:38;;;;;;;1.73;1.50;;;6.50;99.90;;;;;;5043067;28;20207;-50
2022/11/08 01:10:08;;;;;;;5.77;1.60;;;6.40;99.90;;;;;;5051781;28;20207;-50
2022/11/08 01:12:35;;;;;;;1.93;1.83;;;6.40;99.90;;;;;;5045493;28;20218;-49
2022/11/08 01:15:02;;;;;;;2.63;2.10;;;6.30;99.90;;;;;;5049387;28;20282;-51
2022/11/08 01:17:29;;;;;;;3.20;2.20;;;6.30;99.90;;;;;;5049242;28;20224;-49
2022/11/08 01:19:56;;;;;;;3.17;2.57;;;6.40;99.90;;;;;;5050267;28;20258;-49
2022/11/08 01:22:23;;;;;;;4.10;3.00;;;6.30;99.90;;;;;;5049386;28;20204;-49
2022/11/08 01:24:50;;;;;;;6.47;3.37;;;6.30;99.90;;;;;;5043264;28;20343;-51
2022/11/08 01:27:18;;;;;;;3.27;2.10;;;6.30;99.90;;;;;;5033524;28;20216;-50
2022/11/08 01:29:45;;;;;;;2.40;2.20;;;6.20;99.90;;;;;;5033636;28;20207;-51
2022/11/08 01:32:12;;;;;;;2.63;2.33;;;6.20;99.90;;;;;;5038530;28;20257;-49
2022/11/08 01:34:39;;;;;;;3.13;2.80;;;6.00;99.90;;;;;;5043460;28;20211;-50
2022/11/08 01:37:06;;;;;;;3.93;3.37;;;6.00;99.90;;;;;;5042997;28;20221;-50
2022/11/08 01:39:33;;;;;;;2.77;2.57;;;6.00;99.90;;;;;;5044985;28;20204;-50
2022/11/08 01:42:00;;;;;;;3.47;3.00;;;6.00;99.90;;;;;;5033540;28;20202;-51
2022/11/08 01:44:28;;;;;;;4.23;2.70;;;5.90;99.90;;;;;;5034385;28;20232;-50
2022/11/08 01:46:55;;;;;;;3.30;2.43;;;5.90;99.90;;;;;;5042027;28;20198;-49
2022/11/08 01:49:43;;;;;;;2.27;1.77;;;6.00;99.90;;;;;;5039708;28;20227;-49
2022/11/08 01:52:22;;;;;;;3.90;2.53;;;6.00;99.90;;;;;;5032917;28;20571;-49
2022/11/08 01:55:04;;;;;;;3.23;1.90;;;6.10;99.90;;;;;;5032819;28;20629;-49
2022/11/08 01:57:36;;;;;;;3.27;1.90;;;6.20;99.90;;;;;;5038883;28;20637;-50
2022/11/08 02:00:09;;;;;;;2.37;2.27;;;6.30;99.90;;;;;;5043871;28;20205;-50
2022/11/08 02:02:38;;;;;;;2.97;1.67;;;6.20;99.90;;;;;;5047957;28;20310;-49
2022/11/08 02:05:23;;;;;;;1.57;1.47;;;6.20;99.90;;;;;;5044015;28;20674;-49
2022/11/08 02:07:52;;;;;;;1.63;1.53;;;6.30;99.90;;;;;;5040697;28;20257;-50
2022/11/08 02:10:19;;;;;;;1.57;1.47;;;6.40;99.90;;;;;;5039121;28;20210;-50
2022/11/08 02:12:46;;;;;;;1.70;1.53;;;6.40;99.90;;;;;;5043621;28;20783;-49
2022/11/08 02:15:16;;;;;;;1.90;1.60;;;6.30;99.90;;;;;;5040585;28;21980;-50
2022/11/08 02:17:43;;;;;;;2.87;2.00;;;6.40;99.90;;;;;;5034833;28;20297;-50
2022/11/08 02:20:11;;;;;;;1.80;1.70;;;6.40;99.90;;;;;;5035404;28;20262;-49
2022/11/08 02:22:43;;;;;;;1.30;1.30;;;6.40;99.90;;;;;;5047827;28;20222;-51
2022/11/08 02:25:12;;;;;;;2.00;0.93;;;6.40;99.90;;;;;;5046039;28;20200;-50
2022/11/08 02:27:39;;;;;;;2.00;1.60;;;6.40;99.90;;;;;;5041718;28;20249;-50
2022/11/08 02:30:07;;;;;;;3.70;1.23;;;6.40;99.90;;;;;;5039879;28;20210;-50
2022/11/08 02:32:38;;;;;;;2.10;1.40;;;6.30;99.90;;;;;;5039885;28;20250;-49
2022/11/08 02:35:08;;;;;;;6.13;1.60;;;6.30;99.90;;;;;;5043178;28;20257;-51
2022/11/08 02:37:36;;;;;;;1.13;1.13;;;6.20;99.90;;;;;;5050027;28;20255;-49
2022/11/08 02:40:04;;;;;;;2.13;1.53;;;6.20;99.90;;;;;;5051643;28;20624;-50
2022/11/08 02:42:32;;;;;;;3.60;1.33;;;6.20;99.90;;;;;;5049172;28;20222;-49
2022/11/08 02:44:59;;;;;;;1.23;1.13;;;6.20;99.90;;;;;;5046850;28;20662;-51
2022/11/08 02:47:26;;;;;;;1.77;1.47;;;6.20;99.90;;;;;;5045278;28;20727;-50
2022/11/08 02:49:53;;;;;;;4.00;1.37;;;6.10;99.90;;;;;;5041315;28;20618;-50
2022/11/08 02:52:20;;;;;;;1.60;1.50;;;6.10;99.90;;;;;;5045821;28;20212;-49
2022/11/08 02:54:47;;;;;;;2.10;0.97;;;6.00;99.90;;;;;;5049935;28;20570;-51
2022/11/08 02:57:14;;;;;;;1.47;1.17;;;6.00;99.90;;;;;;5044981;28;20269;-49
2022/11/08 02:59:42;;;;;;;1.40;1.30;;;5.90;99.90;;;;;;5043271;28;20203;-50
2022/11/08 03:02:09;;;;;;;1.47;1.47;;;5.80;99.90;;;;;;5047839;28;20200;-50
2022/11/08 03:04:36;;;;;;;1.60;1.50;;;5.80;99.90;;;;;;5049929;28;20199;-49
2022/11/08 03:07:03;;;;;;;2.43;1.83;;;5.70;99.90;;;;;;5047260;28;20206;-50
2022/11/08 03:09:30;;;;;;;1.13;1.13;;;5.70;99.90;;;;;;5047485;28;20207;-50
2022/11/08 03:11:57;;;;;;;1.60;1.50;;;5.60;99.90;;;;;;5044579;28;20660;-49
2022/11/08 03:14:24;;;;;;;2.40;1.13;;;5.60;99.90;;;;;;5050019;28;20702;-49
2022/11/08 03:16:52;;;;;;;1.83;1.73;;;5.60;99.90;;;;;;5040982;28;20662;-51
2022/11/08 03:19:22;;;;;;;2.70;1.97;;;5.50;99.90;;;;;;5031822;28;20225;-50
2022/11/08 03:21:49;;;;;;;2.43;1.90;;;5.50;99.90;;;;;;5031712;28;20235;-50
2022/11/08 03:24:16;;;;;;;2.40;1.43;;;5.40;99.90;;;;;;5036365;28;20253;-51
2022/11/08 03:26:43;;;;;;;1.93;1.80;;;5.40;99.90;;;;;;5048614;28;20639;-49
2022/11/08 03:29:10;;;;;;;2.27;2.10;;;5.40;99.90;;;;;;5046845;28;20641;-49
2022/11/08 03:31:37;;;;;;;3.57;2.07;;;5.30;99.90;;;;;;5031501;28;20244;-50
2022/11/08 03:34:05;;;;;;;3.27;2.47;;;5.30;99.90;;;;;;5031476;28;20278;-49
2022/11/08 03:36:32;;;;;;;2.80;2.60;;;5.20;99.90;;;;;;5047199;28;20253;-49
2022/11/08 03:38:59;;;;;;;2.93;2.73;;;5.20;99.90;;;;;;5042962;28;20291;-50
2022/11/08 03:41:26;;;;;;;3.20;2.97;;;5.20;99.90;;;;;;5045618;28;20261;-49
2022/11/08 03:43:53;;;;;;;5.07;3.17;;;5.10;99.90;;;;;;5042680;28;20221;-50
2022/11/08 03:46:20;;;;;;;7.03;3.40;;;5.10;99.90;;;;;;5051566;28;20213;-49
2022/11/08 03:48:47;;;;;;;6.23;3.63;;;5.00;99.90;;;;;;5051392;28;20194;-49
2022/11/08 03:51:15;;;;;;;4.03;3.10;;;5.10;99.90;;;;;;5045796;28;20263;-50
2022/11/08 03:53:42;;;;;;;2.93;2.73;;;5.00;99.90;;;;;;5033028;28;20219;-50
2022/11/08 03:56:09;;;;;;;2.50;2.40;;;5.00;99.90;;;;;;5049999;28;20208;-49
2022/11/08 03:58:36;;;;;;;4.20;3.07;;;5.00;99.90;;;;;;5048474;28;20218;-50
2022/11/08 04:01:05;;;;;;;2.93;2.30;;;4.90;99.90;;;;;;5048993;28;20204;-51
2022/11/08 04:03:32;;;;;;;3.87;2.97;;;4.90;99.90;;;;;;5047180;28;20252;-50
2022/11/08 04:06:00;;;;;;;3.73;2.93;;;5.10;99.90;;;;;;5053499;28;20669;-49
2022/11/08 04:08:30;;;;;;;4.10;2.60;;;5.10;99.90;;;;;;5053859;28;20229;-50
2022/11/08 04:15:13;;;;;;;2.97;2.20;;;5.10;99.90;;;;;;5044712;28;20207;-49
2022/11/08 04:16:31;;;;;;;4.93;3.43;;;5.10;99.90;;;;;;5048273;28;20582;-49
2022/11/08 04:21:44;;;;;;;2.70;2.53;;;5.20;99.90;;;;;;5044764;28;20235;-50
2022/11/08 04:24:12;;;;;;;2.70;2.50;;;5.20;99.90;;;;;;5041557;28;20804;-50
2022/11/08 04:26:40;;;;;;;4.23;2.57;;;5.20;99.90;;;;;;5038171;28;20203;-50
2022/11/08 04:29:08;;;;;;;3.10;2.20;;;5.10;99.90;;;;;;5050563;28;20203;-50
2022/11/08 04:31:36;;;;;;;3.17;2.17;;;5.20;99.90;;;;;;5041658;28;20200;-49
2022/11/08 04:34:03;;;;;;;5.17;3.30;;;5.10;99.90;;;;;;5040216;28;20671;-50
2022/11/08 04:36:30;;;;;;;2.37;2.17;;;5.00;99.90;;;;;;5054473;28;20669;-50
2022/11/08 04:38:57;;;;;;;2.87;2.67;;;4.90;99.90;;;;;;5053364;28;20218;-50
2022/11/08 04:41:26;;;;;;;2.20;1.90;;;4.90;99.90;;;;;;5048896;28;20206;-49
2022/11/08 04:43:56;;;;;;;5.10;2.87;;;4.80;99.90;;;;;;5042924;28;20225;-49
2022/11/08 04:46:24;;;;;;;3.30;1.90;;;4.70;99.90;;;;;;5045882;28;20624;-50
2022/11/08 04:48:53;;;;;;;2.73;2.17;;;4.70;99.90;;;;;;5054217;28;20818;-50
2022/11/08 04:51:23;;;;;;;2.87;2.00;;;4.70;99.90;;;;;;5046470;28;20212;-49
2022/11/08 04:53:50;;;;;;;2.20;2.10;;;4.70;99.90;;;;;;5033800;28;20226;-50
2022/11/08 04:56:19;;;;;;;3.63;2.10;;;4.70;99.90;;;;;;5040023;28;20665;-48
2022/11/08 04:58:49;;;;;;;3.93;3.20;;;4.70;99.90;;;;;;5046608;28;20219;-50
2022/11/08 05:01:18;;;;;;;6.10;3.17;;;4.70;99.90;;;;;;5055120;28;20211;-50
2022/11/08 05:03:46;;;;;;;3.87;3.20;;;4.70;99.90;;;;;;5054841;28;20717;-49
2022/11/08 05:06:16;;;;;;;4.40;2.63;;;4.70;99.90;;;;;;5052980;28;20202;-49
2022/11/08 05:08:43;;;;;;;2.93;2.60;;;4.60;99.90;;;;;;5052198;28;20236;-49
2022/11/08 05:11:12;;;;;;;4.27;2.80;;;4.50;99.90;;;;;;5040151;28;20230;-50
2022/11/08 05:13:39;;;;;;;5.13;3.30;;;4.50;99.90;;;;;;5050393;28;20235;-49
2022/11/08 05:16:12;;;;;;;3.80;3.50;;;4.40;99.90;;;;;;5039732;28;20205;-49
2022/11/08 05:18:40;;;;;;;4.03;3.63;;;4.40;99.90;;;;;;5049796;28;20256;-49
2022/11/08 05:23:51;;;;;;;5.23;3.63;;;4.20;99.90;;;;;;5009286;28;20216;-50
2022/11/08 05:26:19;;;;;;;3.97;3.57;;;4.30;99.90;;;;;;5043115;28;20212;-49
2022/11/08 05:28:47;;;;;;;3.97;3.07;;;4.30;99.90;;;;;;5045657;28;20282;-50
2022/11/08 05:31:16;;;;;;;5.67;3.50;;;4.30;99.90;;;;;;5049886;28;20207;-49
2022/11/08 05:33:43;;;;;;;3.17;2.83;;;4.30;99.90;;;;;;5053258;28;20265;-50
2022/11/08 05:36:12;;;;;;;5.97;3.13;;;4.30;99.90;;;;;;5053483;28;20746;-50
2022/11/08 05:38:39;;;;;;;3.17;2.90;;;4.30;99.90;;;;;;5043774;28;20218;-50
2022/11/08 05:41:08;;;;;;;4.53;2.23;;;4.20;99.90;;;;;;5037713;28;20204;-51
2022/11/08 05:43:35;;;;;;;2.90;2.60;;;4.20;99.90;;;;;;5046734;28;20220;-48
2022/11/08 05:46:03;;;;;;;4.13;3.07;;;4.20;99.90;;;;;;5045076;28;20291;-50
2022/11/08 05:48:31;;;;;;;3.57;2.93;;;4.20;99.90;;;;;;5052588;28;20282;-50
2022/11/08 05:50:58;;;;;;;4.17;2.73;;;4.10;99.90;;;;;;5052995;28;20243;-49
2022/11/08 05:53:25;;;;;;;6.03;3.77;;;4.10;99.90;;;;;;5038860;28;20292;-50
2022/11/08 05:55:58;;;;;;;3.57;3.27;;;4.10;99.90;;;;;;5033315;28;20254;-50
2022/11/08 05:58:25;;;;;;;3.97;2.87;;;4.10;99.90;;;;;;5033815;28;20229;-49
2022/11/08 06:00:58;;;;;;;5.20;2.90;;;4.20;99.90;;;;;;5048959;28;20250;-50
2022/11/08 06:03:25;;;;;;;5.40;2.83;;;4.10;99.90;;;;;;5035460;28;20711;-49
2022/11/08 06:05:54;;;;;;;2.70;2.50;;;4.10;99.90;;;;;;5050826;28;20619;-49
2022/11/08 06:08:21;;;;;;;3.33;2.93;;;4.10;99.90;;;;;;5046511;28;20203;-49
2022/11/08 06:10:48;;;;;;;3.67;3.40;;;4.00;99.90;;;;;;5048133;28;20203;-51
2022/11/08 06:13:15;;;;;;;5.77;3.30;;;4.00;99.90;;;;;;5045132;28;20239;-52
2022/11/08 06:15:42;;;;;;;8.13;3.07;;;4.00;99.90;;;;;;5044812;28;20268;-50
2022/11/08 06:18:09;;;;;;;4.60;4.13;;;4.00;99.90;;;;;;5048402;28;20267;-50
2022/11/08 06:20:36;;;;;;;4.33;3.93;;;4.00;99.90;;;;;;5043029;28;20262;-50
2022/11/08 06:23:05;;;;;;;8.33;5.27;;;4.00;99.90;;;;;;5038466;28;20800;-51
2022/11/08 06:25:32;;;;;;;6.57;4.77;;;4.00;99.90;;;;;;5043907;28;20203;-50
2022/11/08 06:28:00;;;;;;;4.67;4.03;;;4.00;99.90;;;;;;5035363;28;20195;-50
2022/11/08 06:30:27;;;;;;;4.73;4.33;;;4.00;99.90;;;;;;5040606;28;20200;-49
2022/11/08 06:32:55;;;;;;;5.20;4.70;;;4.00;99.90;;;;;;5044372;28;20220;-51
2022/11/08 06:35:22;;;;;;;5.03;4.57;;;4.00;99.90;;;;;;5044390;28;20208;-51
2022/11/08 06:37:49;;;;;;;5.03;4.57;;;4.00;99.90;;;;;;5047541;28;20209;-50
2022/11/08 06:40:18;;;;;;;4.80;3.80;;;4.10;99.90;;;;;;5044859;28;20239;-50
2022/11/08 06:42:46;;;;;;;9.17;5.00;;;4.10;99.90;;;;;;5049371;28;20212;-50
2022/11/08 06:45:14;;;;;;;7.87;4.90;;;4.20;99.90;;;;;;5045425;28;20201;-50
2022/11/08 06:47:41;;;;;;;7.37;5.77;;;4.20;99.90;;;;;;5050773;28;20253;-50
2022/11/08 06:50:09;;;;;;;6.43;5.13;;;4.20;99.90;;;;;;5045508;28;20259;-49
2022/11/08 06:52:38;;;;;;;8.77;6.07;;;4.30;99.90;;;;;;5045671;28;20242;-49
2022/11/08 06:55:06;;;;;;;10.60;8.00;;;4.40;99.90;;;;;;5046375;28;20625;-50
2022/11/08 06:57:35;;;;;;;9.50;6.90;;;4.50;99.90;;;;;;5047144;28;20253;-49
2022/11/08 07:00:02;;;;;;;7.53;6.37;;;4.60;99.90;;;;;;5031715;28;20224;-49
2022/11/08 07:02:30;;;;;;;7.17;5.93;;;4.70;99.90;;;;;;5044923;28;20906;-50
2022/11/08 07:04:57;;;;;;;11.33;7.13;;;4.80;99.90;;;;;;5051431;28;20287;-49
2022/11/08 07:07:24;;;;;;;9.53;6.87;;;4.90;99.90;;;;;;5051018;28;20249;-49
2022/11/08 07:09:51;;;;;;;13.47;6.10;;;5.00;99.90;;;;;;5051734;28;20209;-49
2022/11/08 07:12:18;;;;;;;9.80;6.10;;;5.20;99.90;;;;;;5051445;28;20204;-50
2022/11/08 07:14:46;;;;;;;5.10;3.97;;;5.20;99.90;;;;;;5051588;28;20238;-50
2022/11/08 07:17:14;;;;;;;4.70;3.23;;;5.40;99.90;;;;;;5051546;28;20686;-49
2022/11/08 07:19:42;;;;;;;6.97;4.10;;;5.50;99.90;;;;;;5051509;28;20219;-50
2022/11/08 07:22:09;;;;;;;10.40;5.20;;;5.70;99.90;;;;;;5042899;28;20207;-49
2022/11/08 07:24:36;;;;;;;12.40;8.43;;;5.90;99.90;;;;;;5042403;28;20451;-48
2022/11/08 07:27:03;;;;;;;14.43;7.23;;;6.00;99.90;;;;;;5043748;28;20971;-50
2022/11/08 07:29:33;;;;;;;6.17;3.73;;;6.20;99.90;;;;;;5044002;28;20205;-49
2022/11/08 07:32:02;;;;;;;3.50;2.80;;;6.30;99.90;;;;;;5055088;28;20290;-50
2022/11/08 07:34:30;;;;;;;4.10;3.00;;;6.40;99.90;;;;;;5055027;28;20222;-49
2022/11/08 07:36:57;;;;;;;6.77;4.37;;;6.50;99.90;;;;;;5046085;28;20631;-50
2022/11/08 07:39:24;;;;;;;4.17;3.77;;;6.50;99.90;;;;;;5051510;28;20577;-50
2022/11/08 07:41:51;;;;;;;4.13;3.77;;;6.60;99.90;;;;;;5048256;28;20621;-50
2022/11/08 07:44:19;;;;;;;7.23;4.10;;;6.70;99.90;;;;;;5052481;28;20218;-49
2022/11/08 07:46:46;;;;;;;4.87;4.43;;;6.80;99.90;;;;;;5052570;28;20214;-51
2022/11/08 07:49:15;;;;;;;6.77;4.13;;;6.90;99.90;;;;;;5038097;28;20234;-49
2022/11/08 07:51:41;;;;;;;6.93;3.93;;;7.00;99.90;;;;;;5042993;28;20204;-50
2022/11/08 07:54:08;;;;;;;6.27;3.53;;;7.10;99.90;;;;;;5050084;28;20273;-50
2022/11/08 07:56:36;;;;;;;4.90;3.43;;;7.10;99.90;;;;;;5048331;28;20204;-50
2022/11/08 07:59:03;;;;;;;5.00;3.53;;;7.20;99.90;;;;;;5050425;28;20230;-50
2022/11/08 08:01:30;;;;;;;4.57;3.73;;;7.20;99.90;;;;;;5044679;28;20346;-49
2022/11/08 08:03:57;;;;;;;8.97;3.93;;;7.30;99.90;;;;;;5050412;28;20299;-50
2022/11/08 08:06:25;;;;;;;6.03;5.53;;;7.40;99.90;;;;;;5040534;28;20285;-50
2022/11/08 08:08:52;;;;;;;6.10;5.20;;;7.50;99.90;;;;;;5043218;28;20207;-49
2022/11/08 08:11:19;;;;;;;12.87;6.00;;;7.60;99.90;;;;;;5047029;28;20673;-50
2022/11/08 08:13:46;;;;;;;8.07;4.57;;;7.60;99.90;;;;;;5046762;28;20643;-50
2022/11/08 08:16:13;;;;;;;6.87;4.10;;;7.60;99.90;;;;;;5049424;28;20204;-51
2022/11/08 08:18:40;;;;;;;5.87;3.17;;;7.60;99.90;;;;;;5049885;28;20257;-49
2022/11/08 08:21:07;;;;;;;4.17;3.77;;;7.70;99.90;;;;;;5045474;28;20211;-49
2022/11/08 08:23:35;;;;;;;4.53;4.00;;;7.80;99.90;;;;;;5048751;28;20218;-50
2022/11/08 08:26:03;;;;;;;5.67;4.47;;;7.90;99.90;;;;;;5041516;28;20208;-49
2022/11/08 08:28:30;;;;;;;5.43;4.83;;;8.00;99.90;;;;;;5041750;28;20204;-49
2022/11/08 08:30:57;;;;;;;6.47;4.43;;;8.20;99.90;;;;;;5044962;28;20203;-50
2022/11/08 08:33:24;;;;;;;4.90;4.30;;;8.40;99.90;;;;;;5038217;28;20216;-49
2022/11/08 08:35:52;;;;;;;4.07;3.73;;;8.70;99.90;;;;;;5037144;28;20238;-49
2022/11/08 08:38:20;;;;;;;4.10;3.80;;;8.90;99.90;;;;;;5043240;28;20204;-50
2022/11/08 08:40:48;;;;;;;3.60;3.30;;;9.20;99.90;;;;;;5049384;28;20722;-50
2022/11/08 08:43:15;;;;;;;7.43;4.43;;;9.60;99.90;;;;;;5044417;28;20295;-50
2022/11/08 08:45:42;;;;;;;4.47;3.17;;;10.20;99.90;;;;;;5051261;28;20216;-50
2022/11/08 08:48:09;;;;;;;4.93;3.67;;;11.00;99.90;;;;;;5054176;28;20208;-49
2022/11/08 08:50:36;;;;;;;3.33;3.03;;;11.40;99.90;;;;;;5053391;28;20194;-50
2022/11/08 08:53:05;;;;;;;3.47;3.13;;;11.90;99.90;;;;;;5053850;28;20229;-50
2022/11/08 08:55:34;;;;;;;4.00;3.07;;;12.40;99.90;;;;;;5053391;28;20206;-50
2022/11/08 08:58:02;;;;;;;2.93;2.73;;;12.80;99.90;;;;;;5049855;28;20212;-51
2022/11/08 09:00:29;;;;;;;3.10;2.90;;;13.40;99.90;;;;;;5048997;28;20223;-51
2022/11/08 09:02:56;;;;;;;6.30;3.93;;;13.70;99.90;;;;;;5046850;28;20258;-50
2022/11/08 09:05:23;;;;;;;3.93;3.47;;;14.10;99.90;;;;;;5052328;28;20211;-50
2022/11/08 09:07:54;;;;;;;4.27;3.90;;;14.40;99.90;;;;;;5044434;28;20251;-50
2022/11/08 09:10:21;;;;;;;4.30;4.00;;;14.70;99.90;;;;;;5050347;28;20255;-50
2022/11/08 09:12:48;;;;;;;4.30;3.97;;;14.90;99.90;;;;;;5050893;28;20637;-50
2022/11/08 09:15:17;;;;;;;4.40;4.10;;;15.00;99.90;;;;;;5043466;28;20292;-50
2022/11/08 09:17:44;;;;;;;4.70;4.23;;;15.30;99.90;;;;;;5045785;28;20210;-51
2022/11/08 09:20:13;;;;;;;4.90;4.60;;;15.20;99.90;;;;;;5045280;28;20222;-50
2022/11/08 09:22:40;;;;;;;4.37;4.00;;;15.20;99.90;;;;;;5051733;28;20308;-51
2022/11/08 09:25:09;;;;;;;4.07;3.83;;;15.40;99.90;;;;;;5049640;28;20271;-50
2022/11/08 09:27:36;;;;;;;6.17;5.60;;;15.40;99.90;;;;;;5049628;28;20209;-50
2022/11/08 09:30:03;;;;;;;4.77;4.47;;;15.10;99.90;;;;;;5046143;28;20263;-50
2022/11/08 09:32:32;;;;;;;4.77;4.37;;;14.40;99.90;;;;;;5049293;28;20228;-50
2022/11/08 09:34:59;;;;;;;4.77;4.47;;;13.90;99.90;;;;;;5049054;28;20246;-50
2022/11/08 09:37:26;;;;;;;4.97;4.57;;;13.20;99.90;;;;;;5051337;28;20256;-50
2022/11/08 09:39:53;;;;;;;7.13;5.53;;;12.90;99.90;;;;;;5051709;28;20676;-50
2022/11/08 09:42:34;;;;;;;5.47;5.07;;;12.70;99.90;;;;;;5046379;28;20689;-51
2022/11/08 09:45:24;;;;;;;6.33;5.80;;;12.50;99.90;;;;;;5052468;28;20198;-50
2022/11/08 09:47:58;;;;;;;5.00;4.60;;;12.70;99.90;;;;;;5050181;28;20264;-50
2022/11/08 09:50:30;;;;;;;6.10;4.97;;;13.00;99.90;;;;;;5048040;28;20621;-50
2022/11/08 09:53:06;;;;;;;5.10;4.63;;;13.10;99.90;;;;;;5044728;28;20218;-49
2022/11/08 09:55:39;;;;;;;6.37;5.80;;;12.80;99.90;;;;;;5051775;28;20207;-50
2022/11/08 09:58:18;;;;;;;6.30;4.93;;;12.20;99.90;;;;;;5048811;28;20204;-50
2022/11/08 10:00:49;;;;;;;4.63;4.23;;;12.00;99.90;;;;;;5049105;28;20227;-50
2022/11/08 10:03:19;;;;;;;5.63;5.23;;;12.00;99.90;;;;;;5039961;28;20282;-50
2022/11/08 10:05:58;;;;;;;5.97;5.47;;;12.00;99.90;;;;;;5043022;28;20201;-49
2022/11/08 10:08:32;;;;;;;5.00;4.60;;;11.90;99.90;;;;;;5041512;28;20701;-49
2022/11/08 10:11:15;;;;;;;5.57;5.03;;;12.00;99.90;;;;;;5046849;28;20208;-50
2022/11/08 10:13:52;;;;;;;7.00;4.90;;;11.80;99.90;;;;;;5043140;28;20739;-49
2022/11/08 10:16:31;;;;;;;7.60;6.83;;;11.70;99.90;;;;;;5042933;28;20211;-49
2022/11/08 10:19:27;;;;;;;5.20;4.83;;;12.10;99.90;;;;;;5050418;28;20716;-50
2022/11/08 10:21:59;;;;;;;5.10;4.67;;;12.60;99.90;;;;;;5047266;28;20207;-50
2022/11/08 10:24:34;;;;;;;6.20;4.40;;;12.90;99.90;;;;;;5043586;28;20311;-47
2022/11/08 10:27:02;;;;;;;5.00;4.60;;;13.00;99.90;;;;;;5044326;28;20216;-48
2022/11/08 10:29:35;;;;;;;5.23;4.40;;;13.00;99.90;;;;;;5042816;28;20236;-47
2022/11/08 10:32:11;;;;;;;3.40;3.03;;;13.00;99.90;;;;;;5042185;28;20208;-50
2022/11/08 10:34:46;;;;;;;5.90;4.40;;;13.00;99.90;;;;;;5047688;28;20286;-50
2022/11/08 10:37:15;;;;;;;3.50;3.20;;;12.90;99.90;;;;;;5048096;28;20629;-52
2022/11/08 10:39:51;;;;;;;4.43;4.03;;;12.90;99.90;;;;;;5045429;28;20218;-50
2022/11/08 10:42:25;;;;;;;4.27;3.87;;;12.90;99.90;;;;;;5046014;28;20688;-50
2022/11/08 10:44:52;;;;;;;5.27;3.20;;;13.00;99.90;;;;;;5032869;28;20249;-50
2022/11/08 10:47:25;;;;;;;3.00;2.80;;;13.00;99.90;;;;;;5041392;28;20204;-50
2022/11/08 10:49:54;;;;;;;2.40;2.30;;;13.00;99.90;;;;;;5048858;28;20205;-50
2022/11/08 10:52:32;;;;;;;2.90;2.70;;;13.10;99.90;;;;;;5046340;28;20197;-50
2022/11/08 10:55:00;;;;;;;2.50;2.37;;;13.30;99.90;;;;;;5050037;28;20632;-50
2022/11/08 10:57:37;;;;;;;3.00;2.90;;;13.20;99.90;;;;;;5047284;28;20209;-50
2022/11/08 11:00:23;;;;;;;3.90;3.60;;;13.30;99.90;;;;;;5031886;28;20352;-50
2022/11/08 11:02:52;;;;;;;5.13;4.30;;;13.20;99.90;;;;;;5031944;28;20304;-47
2022/11/08 11:05:30;;;;;;;4.83;4.07;;;13.40;99.90;;;;;;5038829;28;20254;-50
2022/11/08 11:08:04;;;;;;;4.77;4.37;;;13.50;99.90;;;;;;5039794;28;20202;-50
2022/11/08 11:10:33;;;;;;;4.10;3.80;;;13.40;99.90;;;;;;5047535;28;20220;-51
2022/11/08 11:13:02;;;;;;;10.77;5.93;;;13.40;99.90;;;;;;5050535;28;20701;-50
2022/11/08 11:15:37;;;;;;;7.00;4.47;;;13.50;99.90;;;;;;5050823;28;20266;-50
2022/11/08 11:18:16;;;;;;;5.20;4.73;;;13.60;99.90;;;;;;5039902;28;20262;-50
2022/11/08 11:21:01;;;;;;;3.37;3.23;;;13.60;99.90;;;;;;5034058;28;20221;-50
2022/11/08 11:23:40;;;;;;;3.87;3.57;;;13.60;99.90;;;;;;5036795;28;20232;-51
2022/11/08 11:26:16;;;;;;;5.07;3.87;;;13.70;99.90;;;;;;5044853;28;20204;-50
2022/11/08 11:28:59;;;;;;;3.87;3.57;;;13.80;99.90;;;;;;5037482;28;20206;-50
2022/11/08 11:31:26;;;;;;;2.97;2.57;;;13.90;99.90;;;;;;5042850;28;20279;-50
2022/11/08 11:33:53;;;;;;;1.93;1.80;;;13.90;99.90;;;;;;5040902;28;20226;-50
2022/11/08 11:36:24;;;;;;;3.43;2.23;;;14.00;99.90;;;;;;5043083;28;20249;-51
2022/11/08 11:38:58;;;;;;;4.00;3.70;;;14.10;99.90;;;;;;5041653;28;20252;-51
2022/11/08 11:41:30;;;;;;;2.67;2.47;;;14.20;99.90;;;;;;5042497;28;20272;-50
2022/11/08 11:44:05;;;;;;;3.23;2.93;;;14.30;99.90;;;;;;5039944;28;20784;-50
2022/11/08 11:46:41;;;;;;;2.97;1.37;;;14.40;99.90;;;;;;5041536;28;20224;-49
2022/11/08 11:49:19;;;;;;;0.80;0.80;;;14.40;99.90;;;;;;5037249;28;20209;-48
2022/11/08 11:51:51;;;;;;;1.43;1.43;;;14.50;99.90;;;;;;5041573;28;20198;-49
2022/11/08 11:54:18;;;;;;;2.60;2.43;;;14.50;99.90;;;;;;5041739;28;20232;-49
2022/11/08 11:56:52;;;;;;;4.17;2.40;;;14.60;99.90;;;;;;5040853;28;20209;-48
2022/11/08 11:59:38;;;;;;;2.40;2.30;;;14.70;99.90;;;;;;5049766;28;20205;-48
2022/11/08 12:02:41;;;;;;;4.17;1.87;;;14.70;99.90;;;;;;5037650;28;20209;-52
2022/11/08 12:05:35;;;;;;;1.97;1.73;;;14.80;99.90;;;;;;5042626;28;20201;-50
2022/11/08 12:08:17;;;;;;;2.57;2.37;;;14.90;99.90;;;;;;5041173;28;20202;-50
2022/11/08 12:10:59;;;;;;;2.47;1.83;;;14.90;99.90;;;;;;5045986;28;20206;-51
2022/11/08 12:13:38;;;;;;;2.03;1.47;;;15.00;99.90;;;;;;5039683;28;20723;-50
2022/11/08 12:16:14;;;;;;;2.60;2.40;;;15.00;99.90;;;;;;5039497;28;20666;-51
2022/11/08 12:18:55;;;;;;;2.80;2.60;;;15.10;99.90;;;;;;5042075;28;20202;-51
2022/11/08 12:21:30;;;;;;;2.80;2.60;;;15.00;99.90;;;;;;5054234;28;20232;-50
2022/11/08 12:24:35;;;;;;;8.60;4.07;;;14.90;99.90;;;;;;5049981;28;20225;-51
2022/11/08 12:27:10;;;;;;;1.60;1.50;;;14.90;99.90;;;;;;4984117;28;20206;-50
2022/11/08 12:29:44;;;;;;;2.20;2.10;;;15.00;99.90;;;;;;5041117;28;20225;-49
2022/11/08 12:32:31;;;;;;;2.47;2.37;;;14.90;99.90;;;;;;5042161;28;20201;-49
2022/11/08 12:35:22;;;;;;;2.37;2.17;;;14.90;99.90;;;;;;5049157;28;20201;-51
2022/11/08 12:38:07;;;;;;;3.00;2.83;;;15.00;99.90;;;;;;5052904;28;20202;-50
2022/11/08 12:40:45;;;;;;;3.47;3.00;;;14.90;99.90;;;;;;5046772;28;20218;-50
2022/11/08 12:43:26;;;;;;;2.87;2.60;;;14.90;99.90;;;;;;5048901;28;20223;-50
2022/11/08 12:46:06;;;;;;;3.60;3.30;;;14.80;99.90;;;;;;5041534;28;20206;-50
2022/11/08 12:49:10;;;;;;;3.90;3.60;;;14.70;99.90;;;;;;5051482;28;20197;-49
2022/11/08 12:51:53;;;;;;;2.57;2.47;;;14.70;99.90;;;;;;5035998;28;20248;-49
2022/11/08 12:54:26;;;;;;;2.73;2.50;;;14.70;99.90;;;;;;5047769;28;20339;-50
2022/11/08 12:56:59;;;;;;;3.90;2.97;;;14.60;99.90;;;;;;5050492;28;20598;-50
2022/11/08 12:59:32;;;;;;;2.80;2.40;;;14.70;99.90;;;;;;5052601;28;20208;-49
2022/11/08 13:02:02;;;;;;;2.40;2.30;;;14.70;99.90;;;;;;5052840;28;20224;-50
2022/11/08 13:04:40;;;;;;;2.83;2.73;;;14.70;99.90;;;;;;5045097;28;20225;-51
2022/11/08 13:07:18;;;;;;;2.97;2.10;;;14.70;99.90;;;;;;5033898;28;20206;-49
2022/11/08 13:09:51;;;;;;;7.67;3.43;;;14.60;99.90;;;;;;5042812;28;20216;-49
2022/11/08 13:12:39;;;;;;;2.30;2.17;;;14.60;99.90;;;;;;5053717;28;20288;-50
2022/11/08 13:15:16;;;;;;;3.97;2.93;;;14.60;99.90;;;;;;5053403;28;20210;-49
2022/11/08 13:24:35;;;;;;;4.00;3.07;;;14.60;99.90;;;;;;5033543;28;20581;-49
2022/11/08 13:27:39;;;;;;;6.13;4.03;;;14.50;99.90;;;;;;5044770;28;20211;-50
2022/11/08 13:30:39;;;;;;;11.73;7.43;;;14.40;99.90;;;;;;5052297;28;20208;-49
2022/11/08 13:33:19;;;;;;;11.50;9.10;;;14.20;99.90;;;;;;5040410;28;20222;-50
2022/11/08 13:35:54;;;;;;;5.60;4.03;;;14.10;99.90;;;;;;5053282;28;20231;-49
2022/11/08 13:38:31;;;;;;;3.60;2.80;;;14.00;99.90;;;;;;5053442;28;20225;-50